Saint Augustine, FL (32080)

1:53 AM EST on December 06, 2016 (GMT -0500)
Julieta Ct | | Change Station

Elev 43 ft 29.80 °N, 81.31 °W | Updated 23 seconds ago

Overcast
Overcast
75.0 °F
Feels Like 76 °F
N
1.1
Wind Variable Wind from SSW
Gusts 2.5 mph

Today
High -- | Low -- °F
--% Chance of Precip.
Yesterday
High -- | Low -- °F
Precip. -- in
Pressure 29.86 in
Visibility 10.0 miles
Clouds Mostly Cloudy 11000 ft
Heat Index 76 °F
Dew Point 68 °F
Humidity 79%
Rainfall 0.00 in
Snow Depth Not available.
7:07 AM 5:25 PM
Waxing Crescent, 39% visible
METAR KSGJ 060558Z AUTO 20008KT 10SM -RA BKN110 24/19 A2986 RMK AO2 RAB50 SLP111 P0000 60000 T02390194 10250 20228 58009
Pressure 29.86 in
Visibility 10.0 miles
Clouds Mostly Cloudy 11000 ft
Heat Index 76 °F
Dew Point 68 °F
Humidity 79%
Rainfall 0.00 in
Snow Depth Not available.
7:07 AM 5:25 PM
Waxing Crescent, 39% visible
METAR KSGJ 060558Z AUTO 20008KT 10SM -RA BKN110 24/19 A2986 RMK AO2 RAB50 SLP111 P0000 60000 T02390194 10250 20228 58009

10-Day Weather Forecast

Almanac

Astronomy

Dec. 06, 2016 Rise Set
Actual Time
Civil Twilight
Nautical Twilight
Astronomical Twilight
Moon
Length of Visible Light
Length of Day
Tomorrow will be .
, % of the Moon is Illuminated

Today's Extremes

State Highs State Lows

Community

WunderPhotos

Upload Photos

1,955,931 photos uploaded!

WunderBlog® & News

Nearby

Air Quality

  Air Quality AQ Index Pollutant
Not available.

Snow Depth

Station Depth Elevation

Earthquake Activity

City Distance Mag. Time & Date
Minimum magnitude displayed is 2.5.

Coastal Water Temperatures

Place Temperature

Stations

Nearby Weather Stations

Station Location Temp. Windchill Dew Point Humidity Wind Precip. Elev Updated Type
                   

Watches & Warnings

There are currently no watches in effect.